Terminal Aerodrome Forecast
Issued by NWS

Current Version | Previous Version | Graphics & Text | Print | Product List | Glossary On
Versions: 1 2 3 4 5 6 7 8 9 10 11 12 13 14
000
FTUS41 KILN 181135
TAFLUK
TAF
KLUK 181135Z 1812/1912 25005KT P6SM SCT005
     FM181300 27006KT P6SM SCT070
     FM181700 27010KT P6SM SCT045
     FM190200 26004KT P6SM FEW250
     FM191100 19004KT P6SM SCT120=

USA.gov is the U.S. government's official web portal to all federal, state and local government web resources and services.